Time;durP1;ratioP1;P1;durP2;ratioP2;P2;SDS_P1;SDS_P2;PMS_P1;PMS_P2;Temp;Humidity;BMP_temperature;BMP_pressure;BME280_temperature;BME280_humidity;BME280_pressure;Samples;Min_cycle;Max_cycle;Signal;HPM_P1;HPM_P2
2023/05/24 00:00:25;;;;;;;5.53;2.58;;;15.40;99.90;;;;;;4163068;28;20049;-61
2023/05/24 00:02:26;;;;;;;3.63;2.80;;;15.30;99.90;;;;;;4162820;28;20428;-61
2023/05/24 00:04:28;;;;;;;2.78;2.22;;;15.30;99.90;;;;;;4163866;28;20080;-62
2023/05/24 00:06:33;;;;;;;2.70;2.35;;;15.30;99.90;;;;;;4162711;28;20072;-73
2023/05/24 00:08:34;;;;;;;8.45;2.80;;;15.30;99.90;;;;;;4163246;28;20044;-61
2023/05/24 00:10:35;;;;;;;3.67;1.73;;;15.30;99.90;;;;;;4162939;28;20013;-62
2023/05/24 00:12:37;;;;;;;5.13;2.40;;;15.30;99.90;;;;;;4145048;28;20461;-62
2023/05/24 00:14:38;;;;;;;4.00;2.75;;;15.30;99.90;;;;;;4162886;28;20088;-62
2023/05/24 00:16:40;;;;;;;3.35;2.70;;;15.30;99.90;;;;;;4162197;28;20095;-62
2023/05/24 00:18:45;;;;;;;5.20;2.25;;;15.30;99.90;;;;;;4163204;28;20041;-62
2023/05/24 00:20:46;;;;;;;2.33;2.13;;;15.30;99.90;;;;;;4162062;28;20033;-62
2023/05/24 00:22:47;;;;;;;6.28;2.47;;;15.30;99.90;;;;;;4163654;28;20067;-61
2023/05/24 00:24:48;;;;;;;3.58;2.55;;;15.30;99.90;;;;;;4162016;28;20029;-61
2023/05/24 00:26:50;;;;;;;4.63;2.45;;;15.30;99.90;;;;;;4162788;28;20041;-63
2023/05/24 00:28:51;;;;;;;3.15;2.20;;;15.20;99.90;;;;;;4161380;28;20441;-66
2023/05/24 00:30:52;;;;;;;6.90;2.15;;;15.20;99.90;;;;;;4163381;28;20041;-63
2023/05/24 00:32:53;;;;;;;3.65;2.08;;;15.20;99.90;;;;;;4162349;28;20493;-62
2023/05/24 00:34:54;;;;;;;3.30;2.35;;;15.20;99.90;;;;;;4163649;28;20478;-60
2023/05/24 00:36:56;;;;;;;4.93;2.95;;;15.10;99.90;;;;;;4162270;28;20064;-61
2023/05/24 00:38:57;;;;;;;3.53;2.00;;;15.10;99.90;;;;;;4162176;28;20042;-62
2023/05/24 00:41:00;;;;;;;4.45;2.38;;;15.10;99.90;;;;;;4143850;28;20465;-64
2023/05/24 00:43:01;;;;;;;4.75;2.65;;;15.10;99.90;;;;;;4162231;28;20417;-62
2023/05/24 00:45:02;;;;;;;3.22;2.20;;;15.00;99.90;;;;;;4162590;28;20444;-61
2023/05/24 00:47:03;;;;;;;5.57;2.63;;;15.00;99.90;;;;;;4161249;28;20037;-62
2023/05/24 00:49:05;;;;;;;2.30;2.08;;;15.00;99.90;;;;;;4147757;28;20033;-61
2023/05/24 00:51:06;;;;;;;5.65;2.15;;;15.00;99.90;;;;;;4161780;28;20394;-62
2023/05/24 00:53:08;;;;;;;6.28;2.38;;;15.10;99.90;;;;;;4161977;28;20089;-61
2023/05/24 00:55:10;;;;;;;7.25;2.17;;;15.00;99.90;;;;;;4161073;28;20091;-63
2023/05/24 00:57:12;;;;;;;2.63;2.17;;;15.10;99.90;;;;;;4162872;28;20064;-62
2023/05/24 00:59:14;;;;;;;3.95;2.30;;;15.10;99.90;;;;;;4159838;28;20041;-63
2023/05/24 01:01:15;;;;;;;3.38;2.35;;;15.00;99.90;;;;;;4162314;28;20045;-63
2023/05/24 01:03:18;;;;;;;3.30;2.33;;;15.00;99.90;;;;;;4161688;28;20042;-62
2023/05/24 01:05:19;;;;;;;4.50;2.90;;;15.10;99.90;;;;;;4162971;28;20026;-63
2023/05/24 01:07:20;;;;;;;4.80;3.63;;;15.00;99.90;;;;;;4161696;28;20054;-62
2023/05/24 01:09:44;;;;;;;3.90;2.70;;;14.90;99.90;;;;;;4162846;28;20515;-62
2023/05/24 01:11:53;;;;;;;5.03;3.10;;;14.70;99.90;;;;;;4161607;28;20156;-77
2023/05/24 01:14:16;;;;;;;3.88;2.50;;;14.60;99.90;;;;;;4162956;28;20043;-62
2023/05/24 01:16:25;;;;;;;4.40;2.67;;;14.60;99.90;;;;;;4160499;28;20115;-61
2023/05/24 01:18:33;;;;;;;5.03;2.50;;;14.70;99.90;;;;;;4163130;28;20049;-62
2023/05/24 01:20:36;;;;;;;6.10;3.40;;;14.70;99.90;;;;;;4161287;28;20289;-62
2023/05/24 01:23:04;;;;;;;5.43;2.75;;;14.80;99.90;;;;;;4162216;28;20053;-63
2023/05/24 01:25:18;;;;;;;3.33;2.87;;;14.80;99.90;;;;;;4161361;28;20033;-61
2023/05/24 01:27:20;;;;;;;4.68;2.65;;;14.90;99.90;;;;;;4162577;28;20075;-63
2023/05/24 01:29:22;;;;;;;4.57;2.60;;;14.90;99.90;;;;;;4161172;28;20022;-75
2023/05/24 01:31:24;;;;;;;2.92;2.30;;;14.90;99.90;;;;;;4161355;28;20045;-62
2023/05/24 01:33:25;;;;;;;5.25;2.50;;;15.00;99.90;;;;;;4160403;28;20041;-62
2023/05/24 01:35:26;;;;;;;3.55;2.80;;;15.00;99.90;;;;;;4161328;28;20359;-63
2023/05/24 01:37:27;;;;;;;4.28;2.85;;;15.00;99.90;;;;;;4161131;28;20099;-63
2023/05/24 01:39:29;;;;;;;4.68;2.17;;;15.00;99.90;;;;;;4161607;28;20087;-62
2023/05/24 01:41:36;;;;;;;6.45;2.30;;;15.00;99.90;;;;;;4160889;28;20481;-62
2023/05/24 01:43:42;;;;;;;5.57;2.42;;;15.00;99.90;;;;;;4160949;28;20041;-62
2023/05/24 01:46:17;;;;;;;3.53;2.60;;;15.10;99.90;;;;;;4160991;28;20112;-62
2023/05/24 01:48:27;;;;;;;3.55;2.65;;;15.00;99.90;;;;;;4161776;28;20033;-63
2023/05/24 01:50:37;;;;;;;5.38;2.47;;;15.00;99.90;;;;;;4160496;28;20095;-62
2023/05/24 01:52:42;;;;;;;4.03;2.38;;;14.90;99.90;;;;;;4161794;28;20033;-62
2023/05/24 01:54:49;;;;;;;6.97;2.70;;;14.90;99.90;;;;;;4160795;28;20022;-63
2023/05/24 01:56:53;;;;;;;5.18;2.53;;;14.90;99.90;;;;;;4161268;28;20493;-61
2023/05/24 01:58:57;;;;;;;5.25;2.45;;;14.80;99.90;;;;;;4160675;28;20041;-62
2023/05/24 02:00:59;;;;;;;4.70;2.90;;;14.80;99.90;;;;;;4160968;28;20033;-61
2023/05/24 02:03:01;;;;;;;3.47;2.53;;;14.70;99.90;;;;;;4160594;28;20468;-61
2023/05/24 02:05:03;;;;;;;4.45;2.65;;;14.60;99.90;;;;;;4143292;28;20037;-63
2023/05/24 02:07:05;;;;;;;3.80;2.55;;;14.50;99.90;;;;;;4160137;28;20049;-60
2023/05/24 02:09:06;;;;;;;5.15;2.47;;;14.50;99.90;;;;;;4160740;28;20076;-60
2023/05/24 02:11:07;;;;;;;7.03;2.53;;;14.40;99.90;;;;;;4143070;28;20034;-61
2023/05/24 02:13:08;;;;;;;4.80;2.57;;;14.40;99.90;;;;;;4159984;28;20092;-62
2023/05/24 02:15:10;;;;;;;8.10;2.55;;;14.40;99.90;;;;;;4160943;28;20033;-62
2023/05/24 02:17:11;;;;;;;3.10;2.53;;;14.40;99.90;;;;;;4160520;28;20503;-63
2023/05/24 02:19:13;;;;;;;5.17;2.37;;;14.30;99.90;;;;;;4143555;28;20046;-62
2023/05/24 02:21:14;;;;;;;2.83;2.53;;;14.30;99.90;;;;;;4160325;28;20433;-69
2023/05/24 02:23:15;;;;;;;3.47;2.20;;;14.20;99.90;;;;;;4161342;28;20033;-62
2023/05/24 02:25:16;;;;;;;9.10;2.17;;;14.10;99.90;;;;;;4160507;28;20068;-61
2023/05/24 02:27:17;;;;;;;4.23;2.50;;;14.10;99.90;;;;;;4161818;28;20026;-73
2023/05/24 02:29:18;;;;;;;4.50;2.30;;;14.10;99.90;;;;;;4160669;28;20025;-62
2023/05/24 02:31:20;;;;;;;5.33;2.60;;;14.00;99.90;;;;;;4160746;28;20049;-63
2023/05/24 02:33:24;;;;;;;6.77;2.53;;;14.00;99.90;;;;;;4161316;28;20072;-60
2023/05/24 02:35:25;;;;;;;2.43;2.00;;;14.00;99.90;;;;;;4160843;28;20444;-61
2023/05/24 02:37:27;;;;;;;4.10;2.13;;;14.00;99.90;;;;;;4160404;28;20022;-61
2023/05/24 02:39:28;;;;;;;2.30;1.90;;;14.00;99.90;;;;;;4159692;28;20100;-61
2023/05/24 02:41:29;;;;;;;4.87;2.37;;;14.00;99.90;;;;;;4161708;28;20052;-62
2023/05/24 02:43:30;;;;;;;4.43;2.30;;;14.00;99.90;;;;;;4160319;28;20033;-62
2023/05/24 02:45:31;;;;;;;5.10;2.60;;;14.00;99.90;;;;;;4161478;28;20052;-61
2023/05/24 02:47:32;;;;;;;4.67;2.80;;;14.00;99.90;;;;;;4158779;28;20099;-61
2023/05/24 02:49:33;;;;;;;5.63;1.80;;;14.00;99.90;;;;;;4161493;28;20749;-63
2023/05/24 02:51:35;;;;;;;4.47;2.37;;;14.00;99.90;;;;;;4159687;28;20119;-62
2023/05/24 02:53:37;;;;;;;9.23;4.67;;;14.00;99.90;;;;;;4161311;28;20026;-64
2023/05/24 02:55:38;;;;;;;6.43;2.20;;;14.00;99.90;;;;;;4159931;28;20033;-62
2023/05/24 02:57:40;;;;;;;5.30;3.13;;;14.00;99.90;;;;;;4161426;28;20084;-62
2023/05/24 02:59:42;;;;;;;5.00;2.47;;;14.00;99.90;;;;;;4160276;28;20084;-63
2023/05/24 03:01:43;;;;;;;6.77;2.20;;;14.00;99.90;;;;;;4159894;28;20037;-62
2023/05/24 03:03:44;;;;;;;7.97;2.27;;;14.00;99.90;;;;;;4159919;28;20518;-63
2023/05/24 03:05:45;;;;;;;3.27;2.20;;;14.00;99.90;;;;;;4159922;28;20088;-62
2023/05/24 03:07:46;;;;;;;2.67;2.00;;;14.00;99.90;;;;;;4160949;28;20112;-61
2023/05/24 03:09:48;;;;;;;4.23;2.53;;;14.00;99.90;;;;;;4159521;28;20501;-61
2023/05/24 03:11:50;;;;;;;3.83;2.47;;;14.10;99.90;;;;;;4161285;28;20358;-60
2023/05/24 03:13:51;;;;;;;3.20;2.57;;;14.10;99.90;;;;;;4159846;28;20034;-62
2023/05/24 03:15:52;;;;;;;3.53;2.20;;;14.20;99.90;;;;;;4161437;28;20030;-62
2023/05/24 03:17:53;;;;;;;3.60;2.60;;;14.30;99.90;;;;;;4160574;28;20158;-61
2023/05/24 03:19:54;;;;;;;3.73;2.27;;;14.40;99.90;;;;;;4160115;28;20456;-62
2023/05/24 03:21:55;;;;;;;3.23;2.43;;;14.50;99.90;;;;;;4160485;28;20050;-61
2023/05/24 03:23:57;;;;;;;4.70;1.80;;;14.50;99.90;;;;;;4163554;28;20563;-62
2023/05/24 03:25:58;;;;;;;4.40;2.57;;;14.60;99.90;;;;;;4163141;28;20075;-62
2023/05/24 03:28:01;;;;;;;6.00;2.70;;;14.80;99.90;;;;;;4164408;28;20417;-61
2023/05/24 03:30:02;;;;;;;3.47;2.33;;;15.00;99.90;;;;;;4162158;28;20064;-61
2023/05/24 03:32:04;;;;;;;5.43;2.63;;;15.20;99.90;;;;;;4163323;28;20045;-62
2023/05/24 03:34:05;;;;;;;2.65;2.45;;;15.50;99.90;;;;;;4163073;28;20432;-62
2023/05/24 03:36:06;;;;;;;2.85;2.08;;;15.70;99.90;;;;;;4163449;28;20481;-63
2023/05/24 03:38:07;;;;;;;4.60;2.60;;;16.00;99.90;;;;;;4162358;28;20049;-62
2023/05/24 03:40:08;;;;;;;2.97;1.92;;;16.30;99.90;;;;;;4163156;28;20033;-62
2023/05/24 03:42:10;;;;;;;4.65;1.83;;;16.40;99.90;;;;;;4163547;28;20076;-61
2023/05/24 03:44:11;;;;;;;4.32;2.17;;;16.70;99.90;;;;;;4162704;28;20041;-62
2023/05/24 03:46:12;;;;;;;6.53;2.47;;;17.00;99.90;;;;;;4161431;28;20038;-62
2023/05/24 03:48:14;;;;;;;8.70;2.55;;;17.10;99.90;;;;;;4162989;28;20428;-62
2023/05/24 03:50:15;;;;;;;6.28;2.60;;;17.30;99.90;;;;;;4163168;28;20041;-61
2023/05/24 03:52:16;;;;;;;6.40;2.88;;;17.60;99.90;;;;;;4160467;28;20084;-63
2023/05/24 03:54:17;;;;;;;9.20;2.75;;;17.90;99.90;;;;;;4162717;28;20084;-60
2023/05/24 03:56:18;;;;;;;3.42;2.42;;;18.20;99.90;;;;;;4162375;28;20088;-62
2023/05/24 03:58:19;;;;;;;3.92;2.00;;;18.50;99.90;;;;;;4163459;28;20072;-62
2023/05/24 04:00:21;;;;;;;3.60;2.03;;;18.90;99.90;;;;;;4162465;28;20029;-62
2023/05/24 04:02:22;;;;;;;8.15;2.25;;;19.20;99.90;;;;;;4163045;28;20084;-61
2023/05/24 04:04:23;;;;;;;4.00;1.92;;;19.50;99.90;;;;;;4162555;28;20021;-62
2023/05/24 04:06:27;;;;;;;4.57;2.38;;;19.90;99.90;;;;;;4162326;28;20486;-63
2023/05/24 04:08:30;;;;;;;3.42;1.88;;;19.90;99.90;;;;;;4161777;28;20068;-63
2023/05/24 04:10:31;;;;;;;4.13;2.60;;;20.00;99.90;;;;;;4161453;28;20172;-63
2023/05/24 04:12:32;;;;;;;5.20;1.95;;;20.00;99.90;;;;;;4161940;28;20056;-61
2023/05/24 04:14:34;;;;;;;5.47;2.97;;;20.20;99.90;;;;;;4161914;28;20033;-63
2023/05/24 04:16:38;;;;;;;16.00;3.80;;;20.50;99.90;;;;;;4162548;28;20037;-62
2023/05/24 04:18:39;;;;;;;2.83;2.20;;;20.90;99.80;;;;;;4161030;28;20076;-68
2023/05/24 04:20:40;;;;;;;3.22;2.10;;;21.10;99.10;;;;;;4160167;28;20033;-60
2023/05/24 04:22:41;;;;;;;6.38;2.20;;;21.20;98.50;;;;;;4146314;28;20100;-61
2023/05/24 04:24:43;;;;;;;8.63;2.28;;;21.40;98.20;;;;;;4154093;28;20025;-63
2023/05/24 04:26:44;;;;;;;3.45;2.03;;;21.60;97.60;;;;;;4161857;28;20026;-62
2023/05/24 04:28:45;;;;;;;5.05;2.00;;;21.80;97.00;;;;;;4163245;28;20363;-60
2023/05/24 04:30:47;;;;;;;3.88;1.73;;;21.80;96.30;;;;;;4162044;28;20351;-73
2023/05/24 04:32:48;;;;;;;7.15;1.80;;;22.00;95.90;;;;;;4162443;28;20026;-72
2023/05/24 04:34:51;;;;;;;4.25;1.63;;;22.20;95.60;;;;;;4162006;28;20045;-74
2023/05/24 04:36:52;;;;;;;4.22;1.98;;;22.70;95.00;;;;;;4150290;28;20038;-61
2023/05/24 04:38:54;;;;;;;7.05;2.40;;;22.80;94.20;;;;;;4161655;28;20037;-61
2023/05/24 04:40:56;;;;;;;3.78;1.65;;;23.10;93.80;;;;;;4162459;28;20026;-60
2023/05/24 04:42:57;;;;;;;5.97;1.90;;;23.50;93.20;;;;;;4162581;28;20121;-60
2023/05/24 04:44:59;;;;;;;3.17;2.22;;;23.90;92.40;;;;;;4161294;28;20457;-73
2023/05/24 04:47:02;;;;;;;5.13;2.20;;;24.10;91.50;;;;;;4162202;28;20045;-60
2023/05/24 04:49:04;;;;;;;2.72;2.10;;;24.40;91.20;;;;;;4160991;28;20041;-71
2023/05/24 04:51:05;;;;;;;8.30;2.53;;;24.80;90.60;;;;;;4161946;28;20470;-73
2023/05/24 04:53:06;;;;;;;5.13;2.08;;;25.40;89.70;;;;;;4161781;28;20083;-62
2023/05/24 04:55:08;;;;;;;9.30;2.33;;;25.60;87.90;;;;;;4162618;28;20076;-61
2023/05/24 04:57:09;;;;;;;4.88;1.80;;;25.50;87.30;;;;;;4161687;28;20079;-64
2023/05/24 04:59:10;;;;;;;9.13;2.25;;;25.20;87.20;;;;;;4162505;28;20041;-60
2023/05/24 05:01:12;;;;;;;6.38;2.00;;;25.00;87.20;;;;;;4161472;28;20080;-77
2023/05/24 05:03:13;;;;;;;3.67;2.25;;;24.50;87.10;;;;;;4162772;28;20420;-61
2023/05/24 05:05:15;;;;;;;8.80;2.15;;;24.00;87.80;;;;;;4161219;28;20029;-62
2023/05/24 05:07:16;;;;;;;6.28;2.25;;;23.90;88.20;;;;;;4161566;28;20374;-60
2023/05/24 05:09:17;;;;;;;3.65;1.92;;;24.10;88.20;;;;;;4143984;28;20030;-65
2023/05/24 05:11:19;;;;;;;8.50;2.53;;;24.60;87.60;;;;;;4161858;28;20054;-59
2023/05/24 05:13:20;;;;;;;3.90;2.42;;;24.80;86.50;;;;;;4161835;28;20079;-61
2023/05/24 05:15:22;;;;;;;7.15;1.80;;;24.70;86.70;;;;;;4160785;28;20544;-62
2023/05/24 05:17:23;;;;;;;6.43;2.05;;;24.60;86.50;;;;;;4161551;28;20042;-65
2023/05/24 05:19:24;;;;;;;3.28;1.85;;;24.60;86.60;;;;;;4161247;28;20041;-71
2023/05/24 05:21:26;;;;;;;3.70;1.90;;;24.30;86.50;;;;;;4161456;28;20045;-60
2023/05/24 05:23:27;;;;;;;7.18;2.67;;;24.30;86.50;;;;;;4160459;28;20035;-60
2023/05/24 05:25:29;;;;;;;3.85;1.83;;;24.20;86.50;;;;;;4162321;28;20034;-60
2023/05/24 05:27:30;;;;;;;3.15;1.88;;;24.30;86.40;;;;;;4160544;28;20085;-62
2023/05/24 05:29:32;;;;;;;5.90;1.80;;;24.40;86.20;;;;;;4162242;28;20432;-72
2023/05/24 05:31:33;;;;;;;6.82;1.77;;;24.50;85.80;;;;;;4160569;28;20432;-72
2023/05/24 05:33:34;;;;;;;4.68;1.70;;;24.60;85.20;;;;;;4162238;28;20539;-61
2023/05/24 05:35:35;;;;;;;4.95;2.17;;;24.90;84.90;;;;;;4160159;28;20444;-63
2023/05/24 05:37:36;;;;;;;4.82;1.92;;;25.20;84.30;;;;;;4161359;28;20044;-62
2023/05/24 05:39:38;;;;;;;3.50;2.03;;;25.40;83.90;;;;;;4161061;28;20037;-61
2023/05/24 05:41:41;;;;;;;5.25;1.80;;;25.60;83.40;;;;;;4161671;28;20029;-63
2023/05/24 05:43:43;;;;;;;8.02;2.10;;;25.40;83.10;;;;;;4160874;28;20049;-77
2023/05/24 05:45:44;;;;;;;4.32;1.65;;;25.20;83.20;;;;;;4160048;28;20041;-81
2023/05/24 05:47:45;;;;;;;1.90;1.80;;;25.00;83.40;;;;;;4161774;28;20095;-61
2023/05/24 05:49:46;;;;;;;3.40;2.30;;;25.20;83.50;;;;;;4160175;28;20440;-62
2023/05/24 05:51:48;;;;;;;3.83;2.10;;;25.30;83.30;;;;;;4161940;28;20083;-61
2023/05/24 05:53:49;;;;;;;5.00;2.08;;;25.10;83.10;;;;;;4160492;28;20490;-63
2023/05/24 05:55:50;;;;;;;8.75;2.00;;;24.70;83.30;;;;;;4161740;28;20033;-63
2023/05/24 05:57:52;;;;;;;2.58;1.98;;;24.90;84.00;;;;;;4160750;28;20033;-62
2023/05/24 05:59:53;;;;;;;9.00;2.70;;;25.00;83.40;;;;;;4161592;28;20029;-63
2023/05/24 06:01:54;;;;;;;7.85;3.30;;;25.30;83.00;;;;;;4160558;28;20103;-62
2023/05/24 06:03:55;;;;;;;4.07;1.95;;;25.60;82.50;;;;;;4161820;28;20026;-61
2023/05/24 06:05:56;;;;;;;4.55;2.00;;;25.90;82.00;;;;;;4160383;28;20079;-62
2023/05/24 06:07:57;;;;;;;6.38;2.17;;;26.10;81.20;;;;;;4161616;28;20473;-62
2023/05/24 06:09:58;;;;;;;3.03;1.67;;;25.80;80.70;;;;;;4160308;28;20026;-61
2023/05/24 06:12:00;;;;;;;4.10;1.92;;;25.80;80.60;;;;;;4160478;28;20038;-61
2023/05/24 06:14:01;;;;;;;6.28;1.80;;;26.20;80.60;;;;;;4160660;28;20048;-61
2023/05/24 06:16:02;;;;;;;4.28;1.52;;;26.60;80.10;;;;;;4160228;28;20529;-61
2023/05/24 06:18:04;;;;;;;5.07;1.40;;;27.00;79.50;;;;;;4161072;28;20025;-61
2023/05/24 06:20:10;;;;;;;3.67;1.73;;;27.30;78.40;;;;;;4160108;28;20071;-61
2023/05/24 06:22:11;;;;;;;3.67;1.92;;;27.30;77.70;;;;;;4160382;28;20103;-61
2023/05/24 06:24:20;;;;;;;4.95;1.52;;;27.20;77.60;;;;;;4160364;28;20087;-61
2023/05/24 06:26:21;;;;;;;2.22;1.33;;;27.60;77.30;;;;;;4160447;28;20096;-61
2023/05/24 06:28:22;;;;;;;2.80;1.80;;;27.70;77.00;;;;;;4160184;28;20080;-61
2023/05/24 06:30:24;;;;;;;7.55;2.10;;;27.70;76.80;;;;;;4161263;28;20076;-63
2023/05/24 06:32:25;;;;;;;11.05;2.72;;;27.00;76.40;;;;;;4159609;28;20555;-61
2023/05/24 06:34:28;;;;;;;18.35;3.83;;;26.90;76.90;;;;;;4161345;28;20025;-63
2023/05/24 06:36:32;;;;;;;6.28;3.30;;;26.80;77.00;;;;;;4159959;28;20033;-62
2023/05/24 06:38:34;;;;;;;16.73;3.00;;;26.20;77.20;;;;;;4160590;28;20307;-62
2023/05/24 06:40:35;;;;;;;13.48;3.30;;;25.70;78.10;;;;;;4159407;28;20095;-61
2023/05/24 06:42:38;;;;;;;10.98;2.90;;;25.30;78.50;;;;;;4160466;28;20042;-61
2023/05/24 06:44:39;;;;;;;12.48;2.40;;;25.00;79.40;;;;;;4160096;28;20037;-61
2023/05/24 06:46:40;;;;;;;7.50;2.25;;;24.80;79.70;;;;;;4160956;28;20095;-62
2023/05/24 06:48:41;;;;;;;12.57;3.33;;;25.20;79.70;;;;;;4159636;28;20441;-62
2023/05/24 06:50:44;;;;;;;11.60;3.30;;;26.00;79.00;;;;;;4160418;28;20084;-62
2023/05/24 06:52:45;;;;;;;8.98;2.80;;;27.00;78.00;;;;;;4161002;28;20022;-62
2023/05/24 06:54:46;;;;;;;5.90;3.20;;;27.50;77.20;;;;;;4160467;28;20033;-62
2023/05/24 06:56:47;;;;;;;6.90;3.15;;;27.90;76.80;;;;;;4161403;28;20049;-62
2023/05/24 06:58:48;;;;;;;5.57;1.95;;;27.20;76.50;;;;;;4163182;28;20531;-60
2023/05/24 07:00:49;;;;;;;4.45;2.30;;;26.10;77.80;;;;;;4164499;28;20025;-61
2023/05/24 07:02:51;;;;;;;9.30;3.08;;;25.80;78.90;;;;;;4162971;28;20025;-60
2023/05/24 07:04:52;;;;;;;16.80;3.15;;;25.70;79.20;;;;;;4164220;28;20076;-62
2023/05/24 07:07:03;;;;;;;11.82;3.20;;;25.60;79.40;;;;;;4162991;28;20091;-62
2023/05/24 07:09:05;;;;;;;7.82;3.28;;;25.10;80.50;;;;;;4164363;28;20438;-63
2023/05/24 07:11:06;;;;;;;14.32;3.80;;;24.30;82.20;;;;;;4163069;28;20030;-65
2023/05/24 07:13:08;;;;;;;12.32;3.85;;;23.60;84.00;;;;;;4163430;28;20104;-61
2023/05/24 07:15:10;;;;;;;11.68;3.78;;;23.30;85.20;;;;;;4162406;28;20072;-61
2023/05/24 07:17:11;;;;;;;12.98;4.70;;;23.50;85.60;;;;;;4163612;28;20469;-62
2023/05/24 07:19:12;;;;;;;20.25;4.78;;;23.80;85.80;;;;;;4162692;28;20049;-63
2023/05/24 07:21:13;;;;;;;14.30;3.05;;;23.90;85.40;;;;;;4162957;28;20469;-61
2023/05/24 07:23:14;;;;;;;12.80;3.88;;;24.20;85.30;;;;;;4163090;28;20119;-75
2023/05/24 07:25:16;;;;;;;12.10;3.45;;;23.80;85.70;;;;;;4163336;28;20037;-63
2023/05/24 07:27:17;;;;;;;12.73;3.22;;;23.60;86.80;;;;;;4163724;28;20029;-62
2023/05/24 07:29:20;;;;;;;14.05;3.50;;;23.40;87.90;;;;;;4144640;28;20076;-64
2023/05/24 07:31:21;;;;;;;10.05;3.03;;;23.50;88.00;;;;;;4162978;28;20100;-62
2023/05/24 07:33:23;;;;;;;8.13;3.08;;;23.30;88.60;;;;;;4162701;28;20571;-62
2023/05/24 07:35:24;;;;;;;8.70;3.38;;;23.30;88.90;;;;;;4163108;28;20489;-62
2023/05/24 07:37:25;;;;;;;10.32;3.08;;;23.20;89.30;;;;;;4161802;28;20087;-62
2023/05/24 07:39:27;;;;;;;7.20;2.75;;;23.10;89.40;;;;;;4163647;28;20045;-61
2023/05/24 07:41:28;;;;;;;8.40;3.15;;;23.10;89.80;;;;;;4162847;28;20547;-61
2023/05/24 07:43:29;;;;;;;10.75;3.28;;;23.30;89.60;;;;;;4163042;28;20095;-62
2023/05/24 07:45:30;;;;;;;7.05;2.78;;;23.10;89.80;;;;;;4161936;28;20079;-62
2023/05/24 07:47:32;;;;;;;8.98;3.10;;;23.00;90.00;;;;;;4163794;28;20539;-62
2023/05/24 07:49:33;;;;;;;9.60;3.05;;;23.20;90.10;;;;;;4162744;28;20458;-62
2023/05/24 07:51:34;;;;;;;10.13;3.03;;;23.20;90.20;;;;;;4162305;28;20030;-62
2023/05/24 07:53:36;;;;;;;7.40;2.75;;;23.10;90.40;;;;;;4163135;28;20034;-63
2023/05/24 07:55:37;;;;;;;9.10;3.03;;;23.10;90.50;;;;;;4162587;28;20076;-62
2023/05/24 07:57:40;;;;;;;10.23;2.90;;;23.00;90.50;;;;;;4161853;28;20029;-62
2023/05/24 07:59:41;;;;;;;9.18;3.45;;;23.10;90.70;;;;;;4161300;28;20119;-65
2023/05/24 08:01:42;;;;;;;7.18;2.83;;;23.10;90.80;;;;;;4163004;28;20511;-62
2023/05/24 08:03:44;;;;;;;5.55;2.70;;;23.10;90.90;;;;;;4162441;28;20148;-61
2023/05/24 08:05:45;;;;;;;5.50;2.38;;;23.10;90.90;;;;;;4162930;28;20037;-62
2023/05/24 08:07:46;;;;;;;7.38;3.28;;;23.20;91.00;;;;;;4160693;28;20037;-61
2023/05/24 08:09:48;;;;;;;7.65;2.95;;;23.30;91.00;;;;;;4163374;28;20425;-61
2023/05/24 08:11:49;;;;;;;13.60;3.50;;;23.10;91.20;;;;;;4161620;28;20083;-62
2023/05/24 08:13:50;;;;;;;4.28;2.67;;;23.00;91.40;;;;;;4162689;28;20079;-61
2023/05/24 08:15:51;;;;;;;3.95;2.40;;;22.80;91.60;;;;;;4162019;28;20061;-62
2023/05/24 08:17:52;;;;;;;7.57;2.85;;;22.90;91.60;;;;;;4162125;28;20029;-62
2023/05/24 08:19:53;;;;;;;4.50;2.70;;;22.90;91.80;;;;;;4162435;28;20041;-61
2023/05/24 08:21:56;;;;;;;8.00;3.17;;;23.00;91.90;;;;;;4161714;28;20107;-61
2023/05/24 08:23:57;;;;;;;6.45;4.65;;;23.00;91.80;;;;;;4162106;28;20041;-62
2023/05/24 08:25:58;;;;;;;8.82;2.75;;;23.10;91.80;;;;;;4162078;28;20064;-62
2023/05/24 08:27:59;;;;;;;8.95;5.20;;;23.20;91.70;;;;;;4161847;28;20547;-61
2023/05/24 08:30:01;;;;;;;7.38;3.53;;;23.10;91.90;;;;;;4161964;28;20029;-61
2023/05/24 08:32:02;;;;;;;4.57;2.92;;;23.20;91.90;;;;;;4162047;28;20034;-62
2023/05/24 08:34:03;;;;;;;4.38;2.63;;;23.30;91.90;;;;;;4160912;28;20195;-61
2023/05/24 08:36:05;;;;;;;5.90;2.88;;;23.40;91.70;;;;;;4161530;28;20065;-61
2023/05/24 08:38:07;;;;;;;8.60;3.17;;;23.40;91.70;;;;;;4161799;28;20013;-61
2023/05/24 08:40:09;;;;;;;10.85;3.40;;;23.50;91.50;;;;;;4162635;28;20454;-63
2023/05/24 08:42:10;;;;;;;4.72;2.78;;;23.80;91.40;;;;;;4161797;28;20462;-62
2023/05/24 08:44:12;;;;;;;6.00;3.17;;;23.90;91.10;;;;;;4162496;28;20470;-62
2023/05/24 08:46:16;;;;;;;5.75;3.35;;;23.80;91.20;;;;;;4161913;28;20435;-62
2023/05/24 08:48:18;;;;;;;3.63;2.97;;;23.90;91.50;;;;;;4158762;28;20034;-63
2023/05/24 08:50:19;;;;;;;3.03;2.72;;;23.90;91.20;;;;;;4162240;28;20454;-62
2023/05/24 08:52:22;;;;;;;6.80;2.80;;;23.80;91.20;;;;;;4160732;28;20038;-61
2023/05/24 08:54:23;;;;;;;5.60;3.00;;;23.90;91.40;;;;;;4162800;28;20045;-64
2023/05/24 08:56:25;;;;;;;10.10;3.10;;;24.00;91.30;;;;;;4160759;28;20033;-62
2023/05/24 08:58:27;;;;;;;7.38;2.90;;;23.90;91.30;;;;;;4162547;28;20037;-62
2023/05/24 09:00:28;;;;;;;6.00;3.17;;;24.00;91.40;;;;;;4161333;28;20107;-62
2023/05/24 09:02:30;;;;;;;7.10;3.15;;;23.90;91.20;;;;;;4162412;28;20029;-61
2023/05/24 09:04:34;;;;;;;4.97;2.45;;;23.80;91.40;;;;;;4160977;28;20052;-62
2023/05/24 09:06:35;;;;;;;12.15;3.20;;;23.90;91.60;;;;;;4161920;28;20025;-63
2023/05/24 09:08:37;;;;;;;4.32;2.97;;;23.90;91.60;;;;;;4160881;28;20083;-62
2023/05/24 09:10:38;;;;;;;8.13;3.75;;;23.80;91.50;;;;;;4162115;28;20025;-63
2023/05/24 09:12:44;;;;;;;6.18;2.58;;;23.80;91.60;;;;;;4160746;28;20088;-62
2023/05/24 09:14:46;;;;;;;4.30;2.70;;;23.90;91.50;;;;;;4143764;28;20038;-64
2023/05/24 09:16:48;;;;;;;5.32;3.03;;;23.90;91.30;;;;;;4160310;28;20025;-62
2023/05/24 09:18:49;;;;;;;6.57;2.70;;;24.00;91.40;;;;;;4161006;28;20446;-62
2023/05/24 09:20:50;;;;;;;10.32;2.90;;;24.10;91.30;;;;;;4160600;28;20060;-62
2023/05/24 09:22:52;;;;;;;6.22;2.85;;;24.00;91.30;;;;;;4161426;28;20615;-62
2023/05/24 09:24:59;;;;;;;8.45;3.08;;;23.90;91.50;;;;;;4161476;28;20111;-62
2023/05/24 09:27:05;;;;;;;4.35;3.13;;;23.80;92.00;;;;;;4160312;28;20037;-62
2023/05/24 09:29:08;;;;;;;4.63;2.90;;;23.60;92.00;;;;;;4161259;28;20393;-63
2023/05/24 09:31:09;;;;;;;7.03;3.03;;;23.50;92.20;;;;;;4160642;28;20072;-63
2023/05/24 09:33:12;;;;;;;6.53;2.97;;;23.50;92.20;;;;;;4160716;28;20469;-62
2023/05/24 09:35:13;;;;;;;7.90;2.67;;;23.50;92.20;;;;;;4142598;28;20038;-62
2023/05/24 09:37:16;;;;;;;11.40;3.00;;;23.50;92.20;;;;;;4161357;28;20029;-61
2023/05/24 09:39:19;;;;;;;5.15;3.20;;;23.50;92.30;;;;;;4159437;28;20045;-62
2023/05/24 09:41:20;;;;;;;4.45;3.03;;;23.50;92.30;;;;;;4161679;28;20029;-62
2023/05/24 09:43:22;;;;;;;7.88;2.72;;;23.40;92.40;;;;;;4159895;28;20041;-62
2023/05/24 09:45:23;;;;;;;10.10;2.88;;;23.30;92.50;;;;;;4161695;28;20033;-62
2023/05/24 09:47:31;;;;;;;8.80;3.47;;;23.40;92.70;;;;;;4160706;28;20099;-62
2023/05/24 09:49:36;;;;;;;6.18;3.63;;;23.40;92.90;;;;;;4160624;28;20481;-62
2023/05/24 09:51:37;;;;;;;7.35;3.42;;;23.50;92.90;;;;;;4160657;28;20087;-63
2023/05/24 09:53:44;;;;;;;5.90;2.67;;;23.40;92.90;;;;;;4160744;28;20553;-61
2023/05/24 09:55:45;;;;;;;11.38;3.28;;;23.50;93.20;;;;;;4161041;28;20379;-62
2023/05/24 09:57:52;;;;;;;4.20;2.75;;;23.50;93.00;;;;;;4160994;28;20497;-62
2023/05/24 09:59:53;;;;;;;10.55;3.40;;;23.50;92.90;;;;;;4160235;28;20441;-61
2023/05/24 10:02:09;;;;;;;10.23;3.03;;;23.50;92.70;;;;;;4159475;28;20037;-61
2023/05/24 10:04:10;;;;;;;3.45;2.70;;;23.60;92.60;;;;;;4160413;28;20524;-61
2023/05/24 10:06:12;;;;;;;7.88;3.55;;;23.60;92.40;;;;;;4159486;28;20103;-63
2023/05/24 10:08:15;;;;;;;5.43;3.08;;;23.70;92.00;;;;;;4161452;28;20033;-62
2023/05/24 10:10:16;;;;;;;5.07;2.65;;;23.70;91.90;;;;;;4160338;28;20072;-62
2023/05/24 10:12:21;;;;;;;6.13;2.92;;;23.80;92.20;;;;;;4161284;28;20454;-62
2023/05/24 10:14:25;;;;;;;5.38;2.75;;;23.80;92.30;;;;;;4160049;28;20170;-61
2023/05/24 10:16:26;;;;;;;8.88;3.10;;;23.70;92.30;;;;;;4161028;28;20017;-61
2023/05/24 10:18:28;;;;;;;6.53;2.85;;;23.70;92.60;;;;;;4160321;28;20022;-61
2023/05/24 10:20:30;;;;;;;9.63;2.78;;;23.70;92.90;;;;;;4160118;28;20167;-61
2023/05/24 10:22:40;;;;;;;16.70;2.88;;;24.00;93.30;;;;;;4159935;28;20111;-61
2023/05/24 10:24:47;;;;;;;9.57;3.42;;;23.90;93.20;;;;;;4161986;28;20432;-61
2023/05/24 10:26:51;;;;;;;5.50;2.88;;;23.80;93.50;;;;;;4160271;28;20425;-61
2023/05/24 10:28:58;;;;;;;4.65;2.80;;;23.60;94.00;;;;;;4161231;28;20017;-63
2023/05/24 10:31:11;;;;;;;5.38;3.40;;;23.50;94.00;;;;;;4161697;28;20432;-62
2023/05/24 10:33:13;;;;;;;7.60;3.35;;;23.50;94.10;;;;;;4166670;28;20033;-61
2023/05/24 10:35:18;;;;;;;8.00;2.75;;;23.50;94.10;;;;;;4165719;28;20102;-62